ENSO/SRP METAR and TAF weather

Enter ICAO airport designator
Station Type Date Time Source
ENSO METAR 2021/09/24 05:50 UTC NOAA

ENSO 240550Z 16013KT 120V190 5000 RADZ SCT006 SCT008 BKN012 09/08 Q1001


Station Type Date Time Source
ENSO Decoded METAR 2021/09/24 05:50 UTC NOAA

Stord / Soerstokken, Norway (ENSO) 59-48N 005-21E
Sep 24, 2021 - 01:50 AM EDT / 2021.09.24 0550 UTC
Wind: from the SSE (160 degrees) at 15 MPH (13 KT) (direction variable):0
Visibility: 3 mile(s):0
Sky conditions: mostly cloudy
Weather: rain, drizzle
Temperature: 48 F (9 C)
Dew Point: 46 F (8 C)
Relative Humidity: 93%
Pressure (altimeter): 29.56 in. Hg (1001 hPa)
ob: ENSO 240550Z 16013KT 120V190 5000 RADZ SCT006 SCT008 BKN012 09/08 Q1001
cycle: 6

Station Type Date Time Source
ENSO TAF UTC NOAA

Error!

Example: see airport list